sensor_id;sensor_type;location;lat;lon;timestamp;P1;durP1;ratioP1;P2;durP2;ratioP2
54201;SDS011;40108;53.152;5.844;2023-04-15T00:00:14;14.85;;;6.45;;
54201;SDS011;40108;53.152;5.844;2023-04-15T00:02:41;12.38;;;6.57;;
54201;SDS011;40108;53.152;5.844;2023-04-15T00:05:06;13.48;;;6.45;;
54201;SDS011;40108;53.152;5.844;2023-04-15T00:07:32;13.95;;;6.50;;
54201;SDS011;40108;53.152;5.844;2023-04-15T00:09:59;13.20;;;6.88;;
54201;SDS011;40108;53.152;5.844;2023-04-15T00:12:25;10.68;;;6.15;;
54201;SDS011;40108;53.152;5.844;2023-04-15T00:14:51;13.45;;;6.60;;
54201;SDS011;40108;53.152;5.844;2023-04-15T00:17:18;12.80;;;6.70;;
54201;SDS011;40108;53.152;5.844;2023-04-15T00:19:44;13.25;;;7.57;;
54201;SDS011;40108;53.152;5.844;2023-04-15T00:22:10;14.98;;;6.32;;
54201;SDS011;40108;53.152;5.844;2023-04-15T00:24:36;16.80;;;6.97;;
54201;SDS011;40108;53.152;5.844;2023-04-15T00:27:03;14.57;;;7.18;;
54201;SDS011;40108;53.152;5.844;2023-04-15T00:29:29;15.57;;;7.18;;
54201;SDS011;40108;53.152;5.844;2023-04-15T00:31:55;15.65;;;7.28;;
54201;SDS011;40108;53.152;5.844;2023-04-15T00:34:24;15.43;;;6.75;;
54201;SDS011;40108;53.152;5.844;2023-04-15T00:36:49;13.32;;;6.15;;
54201;SDS011;40108;53.152;5.844;2023-04-15T00:39:16;14.60;;;7.03;;
54201;SDS011;40108;53.152;5.844;2023-04-15T00:41:42;16.55;;;7.03;;
54201;SDS011;40108;53.152;5.844;2023-04-15T00:44:09;17.17;;;7.10;;
54201;SDS011;40108;53.152;5.844;2023-04-15T00:46:35;17.25;;;7.13;;
54201;SDS011;40108;53.152;5.844;2023-04-15T00:49:05;20.33;;;7.93;;
54201;SDS011;40108;53.152;5.844;2023-04-15T00:51:34;15.98;;;7.30;;
54201;SDS011;40108;53.152;5.844;2023-04-15T00:54:04;12.75;;;6.75;;
54201;SDS011;40108;53.152;5.844;2023-04-15T00:56:32;15.77;;;6.72;;
54201;SDS011;40108;53.152;5.844;2023-04-15T00:59:00;13.38;;;7.03;;
54201;SDS011;40108;53.152;5.844;2023-04-15T01:01:26;15.80;;;7.78;;
54201;SDS011;40108;53.152;5.844;2023-04-15T01:03:53;14.35;;;7.47;;
54201;SDS011;40108;53.152;5.844;2023-04-15T01:06:21;14.57;;;7.38;;
54201;SDS011;40108;53.152;5.844;2023-04-15T01:08:47;16.20;;;7.78;;
54201;SDS011;40108;53.152;5.844;2023-04-15T01:11:13;14.00;;;8.02;;
54201;SDS011;40108;53.152;5.844;2023-04-15T01:13:39;14.38;;;7.40;;
54201;SDS011;40108;53.152;5.844;2023-04-15T01:16:06;15.00;;;7.53;;
54201;SDS011;40108;53.152;5.844;2023-04-15T01:18:33;13.65;;;7.55;;
54201;SDS011;40108;53.152;5.844;2023-04-15T01:21:01;18.88;;;7.85;;
54201;SDS011;40108;53.152;5.844;2023-04-15T01:23:28;14.65;;;8.25;;
54201;SDS011;40108;53.152;5.844;2023-04-15T01:25:53;19.48;;;7.57;;
54201;SDS011;40108;53.152;5.844;2023-04-15T01:28:20;13.90;;;7.80;;
54201;SDS011;40108;53.152;5.844;2023-04-15T01:30:45;13.93;;;8.43;;
54201;SDS011;40108;53.152;5.844;2023-04-15T01:33:11;14.93;;;8.45;;
54201;SDS011;40108;53.152;5.844;2023-04-15T01:35:37;19.30;;;8.52;;
54201;SDS011;40108;53.152;5.844;2023-04-15T01:38:06;18.20;;;9.13;;
54201;SDS011;40108;53.152;5.844;2023-04-15T01:40:33;20.17;;;9.73;;
54201;SDS011;40108;53.152;5.844;2023-04-15T01:43:00;15.18;;;9.00;;
54201;SDS011;40108;53.152;5.844;2023-04-15T01:45:26;17.13;;;9.50;;
54201;SDS011;40108;53.152;5.844;2023-04-15T01:47:53;17.92;;;9.73;;
54201;SDS011;40108;53.152;5.844;2023-04-15T01:50:18;16.48;;;9.85;;
54201;SDS011;40108;53.152;5.844;2023-04-15T01:52:45;20.95;;;10.07;;
54201;SDS011;40108;53.152;5.844;2023-04-15T01:55:11;17.13;;;9.65;;
54201;SDS011;40108;53.152;5.844;2023-04-15T01:57:38;15.68;;;10.18;;
54201;SDS011;40108;53.152;5.844;2023-04-15T02:00:04;21.10;;;10.05;;
54201;SDS011;40108;53.152;5.844;2023-04-15T02:02:32;18.42;;;10.50;;
54201;SDS011;40108;53.152;5.844;2023-04-15T02:04:58;18.30;;;10.45;;
54201;SDS011;40108;53.152;5.844;2023-04-15T02:07:24;18.35;;;10.00;;
54201;SDS011;40108;53.152;5.844;2023-04-15T02:09:50;25.73;;;12.32;;
54201;SDS011;40108;53.152;5.844;2023-04-15T02:12:16;19.63;;;11.68;;
54201;SDS011;40108;53.152;5.844;2023-04-15T02:14:41;26.40;;;11.90;;
54201;SDS011;40108;53.152;5.844;2023-04-15T02:17:07;17.30;;;11.00;;
54201;SDS011;40108;53.152;5.844;2023-04-15T02:19:33;20.23;;;11.57;;
54201;SDS011;40108;53.152;5.844;2023-04-15T02:21:59;18.73;;;11.20;;
54201;SDS011;40108;53.152;5.844;2023-04-15T02:24:26;17.50;;;11.73;;
54201;SDS011;40108;53.152;5.844;2023-04-15T02:26:52;21.08;;;12.15;;
54201;SDS011;40108;53.152;5.844;2023-04-15T02:29:18;17.25;;;12.02;;
54201;SDS011;40108;53.152;5.844;2023-04-15T02:31:44;21.00;;;12.93;;
54201;SDS011;40108;53.152;5.844;2023-04-15T02:34:10;21.55;;;12.50;;
54201;SDS011;40108;53.152;5.844;2023-04-15T02:36:35;22.20;;;11.77;;
54201;SDS011;40108;53.152;5.844;2023-04-15T02:39:02;19.83;;;13.15;;
54201;SDS011;40108;53.152;5.844;2023-04-15T02:41:28;18.23;;;12.18;;
54201;SDS011;40108;53.152;5.844;2023-04-15T02:43:54;19.00;;;12.13;;
54201;SDS011;40108;53.152;5.844;2023-04-15T02:46:21;20.75;;;12.38;;
54201;SDS011;40108;53.152;5.844;2023-04-15T02:48:47;19.73;;;12.93;;
54201;SDS011;40108;53.152;5.844;2023-04-15T02:51:14;22.30;;;13.80;;
54201;SDS011;40108;53.152;5.844;2023-04-15T02:53:43;18.92;;;12.52;;
54201;SDS011;40108;53.152;5.844;2023-04-15T02:56:10;22.67;;;13.35;;
54201;SDS011;40108;53.152;5.844;2023-04-15T02:58:35;21.95;;;13.48;;
54201;SDS011;40108;53.152;5.844;2023-04-15T03:01:01;20.63;;;13.02;;
54201;SDS011;40108;53.152;5.844;2023-04-15T03:03:27;19.90;;;12.40;;
54201;SDS011;40108;53.152;5.844;2023-04-15T03:05:53;18.88;;;13.43;;
54201;SDS011;40108;53.152;5.844;2023-04-15T03:08:18;21.40;;;13.43;;
54201;SDS011;40108;53.152;5.844;2023-04-15T03:10:45;22.33;;;13.15;;
54201;SDS011;40108;53.152;5.844;2023-04-15T03:13:11;21.00;;;12.90;;
54201;SDS011;40108;53.152;5.844;2023-04-15T03:15:37;23.55;;;12.38;;
54201;SDS011;40108;53.152;5.844;2023-04-15T03:18:03;20.15;;;12.82;;
54201;SDS011;40108;53.152;5.844;2023-04-15T03:20:28;17.08;;;12.35;;
54201;SDS011;40108;53.152;5.844;2023-04-15T03:22:54;18.33;;;12.30;;
54201;SDS011;40108;53.152;5.844;2023-04-15T03:25:20;23.35;;;13.60;;
54201;SDS011;40108;53.152;5.844;2023-04-15T03:27:46;21.13;;;13.02;;
54201;SDS011;40108;53.152;5.844;2023-04-15T03:30:11;19.30;;;12.25;;
54201;SDS011;40108;53.152;5.844;2023-04-15T03:32:37;18.33;;;12.95;;
54201;SDS011;40108;53.152;5.844;2023-04-15T03:35:03;20.98;;;13.32;;
54201;SDS011;40108;53.152;5.844;2023-04-15T03:37:29;21.63;;;13.45;;
54201;SDS011;40108;53.152;5.844;2023-04-15T03:39:55;26.50;;;14.07;;
54201;SDS011;40108;53.152;5.844;2023-04-15T03:42:21;24.20;;;13.75;;
54201;SDS011;40108;53.152;5.844;2023-04-15T03:44:46;23.27;;;13.63;;
54201;SDS011;40108;53.152;5.844;2023-04-15T03:47:12;21.33;;;14.27;;
54201;SDS011;40108;53.152;5.844;2023-04-15T03:49:38;19.88;;;13.98;;
54201;SDS011;40108;53.152;5.844;2023-04-15T03:52:03;22.25;;;14.07;;
54201;SDS011;40108;53.152;5.844;2023-04-15T03:54:29;20.98;;;13.98;;
54201;SDS011;40108;53.152;5.844;2023-04-15T03:56:55;18.27;;;13.27;;
54201;SDS011;40108;53.152;5.844;2023-04-15T03:59:21;22.58;;;14.25;;
54201;SDS011;40108;53.152;5.844;2023-04-15T04:01:47;20.10;;;14.00;;
54201;SDS011;40108;53.152;5.844;2023-04-15T04:04:13;22.05;;;14.35;;
54201;SDS011;40108;53.152;5.844;2023-04-15T04:06:39;20.67;;;14.20;;
54201;SDS011;40108;53.152;5.844;2023-04-15T04:09:04;24.25;;;14.77;;
54201;SDS011;40108;53.152;5.844;2023-04-15T04:11:30;24.27;;;14.68;;
54201;SDS011;40108;53.152;5.844;2023-04-15T04:13:57;23.73;;;14.80;;
54201;SDS011;40108;53.152;5.844;2023-04-15T04:16:23;25.63;;;14.57;;
54201;SDS011;40108;53.152;5.844;2023-04-15T04:18:48;23.77;;;14.85;;
54201;SDS011;40108;53.152;5.844;2023-04-15T04:21:14;21.65;;;14.32;;
54201;SDS011;40108;53.152;5.844;2023-04-15T04:23:40;24.20;;;15.10;;
54201;SDS011;40108;53.152;5.844;2023-04-15T04:26:06;24.35;;;15.27;;
54201;SDS011;40108;53.152;5.844;2023-04-15T04:28:32;25.27;;;16.10;;
54201;SDS011;40108;53.152;5.844;2023-04-15T04:31:00;22.63;;;15.60;;
54201;SDS011;40108;53.152;5.844;2023-04-15T04:33:25;26.17;;;15.50;;
54201;SDS011;40108;53.152;5.844;2023-04-15T04:35:51;22.98;;;15.27;;
54201;SDS011;40108;53.152;5.844;2023-04-15T04:38:17;28.45;;;16.63;;
54201;SDS011;40108;53.152;5.844;2023-04-15T04:40:42;30.35;;;16.23;;
54201;SDS011;40108;53.152;5.844;2023-04-15T04:43:08;24.08;;;16.45;;
54201;SDS011;40108;53.152;5.844;2023-04-15T04:45:34;24.42;;;15.75;;
54201;SDS011;40108;53.152;5.844;2023-04-15T04:48:00;26.80;;;15.93;;
54201;SDS011;40108;53.152;5.844;2023-04-15T04:50:26;22.77;;;15.15;;
54201;SDS011;40108;53.152;5.844;2023-04-15T04:52:51;25.65;;;15.52;;
54201;SDS011;40108;53.152;5.844;2023-04-15T04:55:17;25.23;;;15.65;;
54201;SDS011;40108;53.152;5.844;2023-04-15T04:57:43;24.45;;;16.02;;
54201;SDS011;40108;53.152;5.844;2023-04-15T05:00:09;26.50;;;16.55;;
54201;SDS011;40108;53.152;5.844;2023-04-15T05:02:35;20.73;;;14.63;;
54201;SDS011;40108;53.152;5.844;2023-04-15T05:05:00;21.90;;;14.95;;
54201;SDS011;40108;53.152;5.844;2023-04-15T05:07:26;23.52;;;15.60;;
54201;SDS011;40108;53.152;5.844;2023-04-15T05:09:52;21.02;;;15.60;;
54201;SDS011;40108;53.152;5.844;2023-04-15T05:12:17;21.85;;;15.18;;
54201;SDS011;40108;53.152;5.844;2023-04-15T05:14:43;24.45;;;15.55;;
54201;SDS011;40108;53.152;5.844;2023-04-15T05:17:10;23.35;;;15.93;;
54201;SDS011;40108;53.152;5.844;2023-04-15T05:19:36;25.42;;;16.27;;
54201;SDS011;40108;53.152;5.844;2023-04-15T05:22:02;26.98;;;16.13;;
54201;SDS011;40108;53.152;5.844;2023-04-15T05:24:28;25.92;;;16.17;;
54201;SDS011;40108;53.152;5.844;2023-04-15T05:26:53;26.17;;;16.38;;
54201;SDS011;40108;53.152;5.844;2023-04-15T05:29:20;24.23;;;15.93;;
54201;SDS011;40108;53.152;5.844;2023-04-15T05:31:46;24.00;;;16.27;;
54201;SDS011;40108;53.152;5.844;2023-04-15T05:34:12;22.27;;;16.02;;
54201;SDS011;40108;53.152;5.844;2023-04-15T05:36:39;25.17;;;17.00;;
54201;SDS011;40108;53.152;5.844;2023-04-15T05:39:05;23.30;;;15.93;;
54201;SDS011;40108;53.152;5.844;2023-04-15T05:41:31;25.42;;;16.05;;
54201;SDS011;40108;53.152;5.844;2023-04-15T05:43:57;21.77;;;15.52;;
54201;SDS011;40108;53.152;5.844;2023-04-15T05:46:22;23.10;;;15.93;;
54201;SDS011;40108;53.152;5.844;2023-04-15T05:48:48;21.83;;;16.30;;
54201;SDS011;40108;53.152;5.844;2023-04-15T05:51:14;22.90;;;15.68;;
54201;SDS011;40108;53.152;5.844;2023-04-15T05:53:40;22.85;;;16.90;;
54201;SDS011;40108;53.152;5.844;2023-04-15T05:56:06;24.25;;;16.83;;
54201;SDS011;40108;53.152;5.844;2023-04-15T05:58:31;21.85;;;15.48;;
54201;SDS011;40108;53.152;5.844;2023-04-15T06:00:57;24.98;;;16.90;;
54201;SDS011;40108;53.152;5.844;2023-04-15T06:03:23;23.88;;;16.20;;
54201;SDS011;40108;53.152;5.844;2023-04-15T06:05:49;24.25;;;16.20;;
54201;SDS011;40108;53.152;5.844;2023-04-15T06:08:15;25.98;;;15.63;;
54201;SDS011;40108;53.152;5.844;2023-04-15T06:10:41;22.25;;;15.60;;
54201;SDS011;40108;53.152;5.844;2023-04-15T06:13:06;23.58;;;16.55;;
54201;SDS011;40108;53.152;5.844;2023-04-15T06:15:32;21.33;;;15.43;;
54201;SDS011;40108;53.152;5.844;2023-04-15T06:17:58;25.17;;;15.70;;
54201;SDS011;40108;53.152;5.844;2023-04-15T06:20:24;21.50;;;15.27;;
54201;SDS011;40108;53.152;5.844;2023-04-15T06:22:50;20.58;;;14.80;;
54201;SDS011;40108;53.152;5.844;2023-04-15T06:25:16;19.23;;;13.68;;
54201;SDS011;40108;53.152;5.844;2023-04-15T06:27:42;17.65;;;13.20;;
54201;SDS011;40108;53.152;5.844;2023-04-15T06:30:08;17.67;;;12.90;;
54201;SDS011;40108;53.152;5.844;2023-04-15T06:32:34;16.30;;;12.50;;
54201;SDS011;40108;53.152;5.844;2023-04-15T06:35:00;15.13;;;11.48;;
54201;SDS011;40108;53.152;5.844;2023-04-15T06:37:25;17.77;;;13.23;;
54201;SDS011;40108;53.152;5.844;2023-04-15T06:39:51;16.60;;;11.38;;
54201;SDS011;40108;53.152;5.844;2023-04-15T06:42:17;15.65;;;11.65;;
54201;SDS011;40108;53.152;5.844;2023-04-15T06:44:43;14.80;;;11.43;;
54201;SDS011;40108;53.152;5.844;2023-04-15T06:47:08;16.23;;;11.05;;
54201;SDS011;40108;53.152;5.844;2023-04-15T06:49:34;17.90;;;11.98;;
54201;SDS011;40108;53.152;5.844;2023-04-15T06:52:00;16.50;;;11.02;;
54201;SDS011;40108;53.152;5.844;2023-04-15T06:54:26;17.33;;;10.95;;
54201;SDS011;40108;53.152;5.844;2023-04-15T06:56:52;17.33;;;11.50;;
54201;SDS011;40108;53.152;5.844;2023-04-15T06:59:18;13.98;;;10.80;;
54201;SDS011;40108;53.152;5.844;2023-04-15T07:01:44;15.50;;;11.63;;
54201;SDS011;40108;53.152;5.844;2023-04-15T07:04:09;17.65;;;12.15;;
54201;SDS011;40108;53.152;5.844;2023-04-15T07:06:36;15.35;;;11.65;;
54201;SDS011;40108;53.152;5.844;2023-04-15T07:09:02;16.67;;;11.68;;
54201;SDS011;40108;53.152;5.844;2023-04-15T07:11:29;18.20;;;12.20;;
54201;SDS011;40108;53.152;5.844;2023-04-15T07:13:56;17.70;;;11.35;;
54201;SDS011;40108;53.152;5.844;2023-04-15T07:16:22;14.18;;;11.48;;
54201;SDS011;40108;53.152;5.844;2023-04-15T07:18:48;15.57;;;11.50;;
54201;SDS011;40108;53.152;5.844;2023-04-15T07:21:13;16.08;;;11.48;;
54201;SDS011;40108;53.152;5.844;2023-04-15T07:23:39;16.73;;;11.20;;
54201;SDS011;40108;53.152;5.844;2023-04-15T07:26:06;13.82;;;9.45;;
54201;SDS011;40108;53.152;5.844;2023-04-15T07:28:32;14.30;;;10.13;;
54201;SDS011;40108;53.152;5.844;2023-04-15T07:30:58;10.93;;;7.97;;
54201;SDS011;40108;53.152;5.844;2023-04-15T07:33:24;10.27;;;7.20;;
54201;SDS011;40108;53.152;5.844;2023-04-15T07:35:49;9.68;;;6.03;;
54201;SDS011;40108;53.152;5.844;2023-04-15T07:38:15;8.43;;;6.38;;
54201;SDS011;40108;53.152;5.844;2023-04-15T07:40:41;5.68;;;4.47;;
54201;SDS011;40108;53.152;5.844;2023-04-15T07:43:07;5.93;;;4.90;;
54201;SDS011;40108;53.152;5.844;2023-04-15T07:45:33;6.70;;;4.68;;
54201;SDS011;40108;53.152;5.844;2023-04-15T07:48:00;7.55;;;4.70;;
54201;SDS011;40108;53.152;5.844;2023-04-15T07:50:27;6.30;;;3.95;;
54201;SDS011;40108;53.152;5.844;2023-04-15T07:52:53;4.88;;;4.00;;
54201;SDS011;40108;53.152;5.844;2023-04-15T07:55:18;4.90;;;3.72;;
54201;SDS011;40108;53.152;5.844;2023-04-15T07:57:47;6.00;;;3.88;;
54201;SDS011;40108;53.152;5.844;2023-04-15T08:00:13;6.55;;;3.92;;
54201;SDS011;40108;53.152;5.844;2023-04-15T08:02:40;5.72;;;3.92;;
54201;SDS011;40108;53.152;5.844;2023-04-15T08:05:07;7.82;;;4.38;;
54201;SDS011;40108;53.152;5.844;2023-04-15T08:07:35;5.13;;;3.83;;
54201;SDS011;40108;53.152;5.844;2023-04-15T08:10:02;6.18;;;4.28;;
54201;SDS011;40108;53.152;5.844;2023-04-15T08:12:27;7.82;;;5.00;;
54201;SDS011;40108;53.152;5.844;2023-04-15T08:14:53;6.10;;;4.22;;
54201;SDS011;40108;53.152;5.844;2023-04-15T08:17:19;6.80;;;4.18;;
54201;SDS011;40108;53.152;5.844;2023-04-15T08:19:45;5.60;;;3.45;;
54201;SDS011;40108;53.152;5.844;2023-04-15T08:22:12;4.78;;;3.10;;
54201;SDS011;40108;53.152;5.844;2023-04-15T08:24:38;6.75;;;3.85;;
54201;SDS011;40108;53.152;5.844;2023-04-15T08:27:04;6.60;;;3.50;;
54201;SDS011;40108;53.152;5.844;2023-04-15T08:29:33;4.00;;;3.13;;
54201;SDS011;40108;53.152;5.844;2023-04-15T08:31:59;6.03;;;3.55;;
54201;SDS011;40108;53.152;5.844;2023-04-15T08:34:28;6.05;;;3.70;;
54201;SDS011;40108;53.152;5.844;2023-04-15T08:36:54;4.70;;;3.20;;
54201;SDS011;40108;53.152;5.844;2023-04-15T08:39:20;5.82;;;3.17;;
54201;SDS011;40108;53.152;5.844;2023-04-15T08:41:47;6.20;;;3.85;;
54201;SDS011;40108;53.152;5.844;2023-04-15T08:44:20;5.97;;;3.60;;
54201;SDS011;40108;53.152;5.844;2023-04-15T08:46:49;5.18;;;3.53;;
54201;SDS011;40108;53.152;5.844;2023-04-15T08:49:16;6.78;;;3.60;;
54201;SDS011;40108;53.152;5.844;2023-04-15T08:51:45;6.15;;;4.10;;
54201;SDS011;40108;53.152;5.844;2023-04-15T08:54:11;6.57;;;4.30;;
54201;SDS011;40108;53.152;5.844;2023-04-15T08:56:37;9.20;;;4.95;;
54201;SDS011;40108;53.152;5.844;2023-04-15T08:59:03;10.50;;;5.68;;
54201;SDS011;40108;53.152;5.844;2023-04-15T09:01:33;9.32;;;5.22;;
54201;SDS011;40108;53.152;5.844;2023-04-15T09:03:59;7.57;;;4.53;;
54201;SDS011;40108;53.152;5.844;2023-04-15T09:06:27;7.90;;;4.00;;
54201;SDS011;40108;53.152;5.844;2023-04-15T09:08:53;5.05;;;4.20;;
54201;SDS011;40108;53.152;5.844;2023-04-15T09:11:19;5.50;;;4.00;;
54201;SDS011;40108;53.152;5.844;2023-04-15T09:13:46;8.00;;;3.67;;
54201;SDS011;40108;53.152;5.844;2023-04-15T09:16:12;6.00;;;3.47;;
54201;SDS011;40108;53.152;5.844;2023-04-15T09:18:38;7.82;;;3.42;;
54201;SDS011;40108;53.152;5.844;2023-04-15T09:21:11;6.32;;;3.67;;
54201;SDS011;40108;53.152;5.844;2023-04-15T09:23:39;6.32;;;3.10;;
54201;SDS011;40108;53.152;5.844;2023-04-15T09:26:17;4.43;;;3.25;;
54201;SDS011;40108;53.152;5.844;2023-04-15T09:28:43;4.30;;;2.85;;
54201;SDS011;40108;53.152;5.844;2023-04-15T09:31:10;8.73;;;3.63;;
54201;SDS011;40108;53.152;5.844;2023-04-15T09:33:40;5.65;;;3.00;;
54201;SDS011;40108;53.152;5.844;2023-04-15T09:36:19;5.03;;;2.80;;
54201;SDS011;40108;53.152;5.844;2023-04-15T09:38:55;4.70;;;2.83;;
54201;SDS011;40108;53.152;5.844;2023-04-15T09:41:24;4.65;;;2.83;;
54201;SDS011;40108;53.152;5.844;2023-04-15T09:43:51;5.03;;;2.78;;
54201;SDS011;40108;53.152;5.844;2023-04-15T09:46:17;7.75;;;2.72;;
54201;SDS011;40108;53.152;5.844;2023-04-15T09:48:43;7.40;;;2.63;;
54201;SDS011;40108;53.152;5.844;2023-04-15T09:51:09;3.80;;;2.42;;
54201;SDS011;40108;53.152;5.844;2023-04-15T09:53:35;3.67;;;2.13;;
54201;SDS011;40108;53.152;5.844;2023-04-15T09:56:02;4.20;;;1.70;;
54201;SDS011;40108;53.152;5.844;2023-04-15T09:58:32;3.22;;;1.40;;
54201;SDS011;40108;53.152;5.844;2023-04-15T10:00:59;3.30;;;1.48;;
54201;SDS011;40108;53.152;5.844;2023-04-15T10:03:31;5.15;;;1.83;;
54201;SDS011;40108;53.152;5.844;2023-04-15T10:05:59;2.38;;;1.42;;
54201;SDS011;40108;53.152;5.844;2023-04-15T10:08:34;4.13;;;1.52;;
54201;SDS011;40108;53.152;5.844;2023-04-15T10:11:00;1.77;;;1.33;;
54201;SDS011;40108;53.152;5.844;2023-04-15T10:13:29;3.72;;;1.50;;
54201;SDS011;40108;53.152;5.844;2023-04-15T10:16:10;2.03;;;1.10;;
54201;SDS011;40108;53.152;5.844;2023-04-15T10:18:43;3.28;;;1.55;;
54201;SDS011;40108;53.152;5.844;2023-04-15T10:21:10;4.25;;;1.00;;
54201;SDS011;40108;53.152;5.844;2023-04-15T10:23:38;2.42;;;1.02;;
54201;SDS011;40108;53.152;5.844;2023-04-15T10:26:04;2.05;;;1.02;;
54201;SDS011;40108;53.152;5.844;2023-04-15T10:28:30;2.42;;;0.80;;
54201;SDS011;40108;53.152;5.844;2023-04-15T10:30:56;2.72;;;1.10;;
54201;SDS011;40108;53.152;5.844;2023-04-15T10:33:24;1.52;;;1.00;;
54201;SDS011;40108;53.152;5.844;2023-04-15T10:35:51;1.95;;;1.02;;
54201;SDS011;40108;53.152;5.844;2023-04-15T10:41:11;3.80;;;1.20;;
54201;SDS011;40108;53.152;5.844;2023-04-15T10:43:53;1.60;;;1.27;;
54201;SDS011;40108;53.152;5.844;2023-04-15T10:46:20;3.40;;;1.50;;
54201;SDS011;40108;53.152;5.844;2023-04-15T10:49:16;3.70;;;1.00;;
54201;SDS011;40108;53.152;5.844;2023-04-15T10:51:50;3.15;;;1.20;;
54201;SDS011;40108;53.152;5.844;2023-04-15T10:59:28;5.05;;;1.25;;
54201;SDS011;40108;53.152;5.844;2023-04-15T11:02:04;2.88;;;1.33;;
54201;SDS011;40108;53.152;5.844;2023-04-15T11:04:52;2.22;;;1.10;;
54201;SDS011;40108;53.152;5.844;2023-04-15T11:12:38;3.75;;;1.20;;
54201;SDS011;40108;53.152;5.844;2023-04-15T11:15:39;4.13;;;0.93;;
54201;SDS011;40108;53.152;5.844;2023-04-15T11:20:50;5.00;;;1.13;;
54201;SDS011;40108;53.152;5.844;2023-04-15T11:25:55;2.80;;;0.88;;
54201;SDS011;40108;53.152;5.844;2023-04-15T11:28:24;2.63;;;0.93;;
54201;SDS011;40108;53.152;5.844;2023-04-15T11:30:54;3.35;;;1.55;;
54201;SDS011;40108;53.152;5.844;2023-04-15T11:33:21;3.70;;;1.25;;
54201;SDS011;40108;53.152;5.844;2023-04-15T11:35:48;3.80;;;1.00;;
54201;SDS011;40108;53.152;5.844;2023-04-15T11:38:14;3.78;;;1.00;;
54201;SDS011;40108;53.152;5.844;2023-04-15T11:40:41;4.93;;;1.40;;
54201;SDS011;40108;53.152;5.844;2023-04-15T11:43:14;5.40;;;1.40;;
54201;SDS011;40108;53.152;5.844;2023-04-15T11:45:54;7.75;;;1.63;;
54201;SDS011;40108;53.152;5.844;2023-04-15T11:48:23;5.90;;;1.48;;
54201;SDS011;40108;53.152;5.844;2023-04-15T11:50:57;5.10;;;1.50;;
54201;SDS011;40108;53.152;5.844;2023-04-15T11:53:46;2.92;;;1.20;;
54201;SDS011;40108;53.152;5.844;2023-04-15T11:56:17;3.28;;;1.00;;
54201;SDS011;40108;53.152;5.844;2023-04-15T11:58:47;3.70;;;1.52;;
54201;SDS011;40108;53.152;5.844;2023-04-15T12:01:17;6.38;;;1.30;;
54201;SDS011;40108;53.152;5.844;2023-04-15T12:03:46;5.45;;;1.88;;
54201;SDS011;40108;53.152;5.844;2023-04-15T12:08:49;5.68;;;1.08;;
54201;SDS011;40108;53.152;5.844;2023-04-15T12:11:37;5.13;;;1.20;;
54201;SDS011;40108;53.152;5.844;2023-04-15T12:16:50;7.32;;;1.30;;
54201;SDS011;40108;53.152;5.844;2023-04-15T12:19:24;9.32;;;1.33;;
54201;SDS011;40108;53.152;5.844;2023-04-15T12:21:52;5.28;;;1.00;;
54201;SDS011;40108;53.152;5.844;2023-04-15T12:24:23;6.87;;;1.40;;
54201;SDS011;40108;53.152;5.844;2023-04-15T12:26:50;9.57;;;1.58;;
54201;SDS011;40108;53.152;5.844;2023-04-15T12:29:18;9.95;;;1.80;;
54201;SDS011;40108;53.152;5.844;2023-04-15T12:31:51;8.38;;;1.80;;
54201;SDS011;40108;53.152;5.844;2023-04-15T12:34:28;8.40;;;1.52;;
54201;SDS011;40108;53.152;5.844;2023-04-15T12:37:01;6.25;;;1.52;;
54201;SDS011;40108;53.152;5.844;2023-04-15T12:39:29;7.05;;;1.25;;
54201;SDS011;40108;53.152;5.844;2023-04-15T12:41:56;8.68;;;1.52;;
54201;SDS011;40108;53.152;5.844;2023-04-15T12:44:24;8.82;;;1.70;;
54201;SDS011;40108;53.152;5.844;2023-04-15T12:46:50;14.82;;;1.77;;
54201;SDS011;40108;53.152;5.844;2023-04-15T12:49:19;11.18;;;1.77;;
54201;SDS011;40108;53.152;5.844;2023-04-15T12:51:47;11.50;;;2.15;;
54201;SDS011;40108;53.152;5.844;2023-04-15T12:54:13;8.13;;;1.38;;
54201;SDS011;40108;53.152;5.844;2023-04-15T12:56:40;13.38;;;1.75;;
54201;SDS011;40108;53.152;5.844;2023-04-15T12:59:06;9.70;;;1.88;;
54201;SDS011;40108;53.152;5.844;2023-04-15T13:01:32;10.15;;;2.10;;
54201;SDS011;40108;53.152;5.844;2023-04-15T13:03:58;11.27;;;1.50;;
54201;SDS011;40108;53.152;5.844;2023-04-15T13:06:23;7.43;;;1.33;;
54201;SDS011;40108;53.152;5.844;2023-04-15T13:08:49;5.80;;;1.05;;
54201;SDS011;40108;53.152;5.844;2023-04-15T13:11:15;11.57;;;1.58;;
54201;SDS011;40108;53.152;5.844;2023-04-15T13:13:41;8.10;;;1.40;;
54201;SDS011;40108;53.152;5.844;2023-04-15T13:16:07;9.45;;;1.35;;
54201;SDS011;40108;53.152;5.844;2023-04-15T13:18:33;8.95;;;1.20;;
54201;SDS011;40108;53.152;5.844;2023-04-15T13:20:59;21.17;;;2.10;;
54201;SDS011;40108;53.152;5.844;2023-04-15T13:23:26;12.80;;;1.83;;
54201;SDS011;40108;53.152;5.844;2023-04-15T13:25:51;12.25;;;1.80;;
54201;SDS011;40108;53.152;5.844;2023-04-15T13:28:17;9.30;;;1.45;;
54201;SDS011;40108;53.152;5.844;2023-04-15T13:30:43;9.35;;;1.60;;
54201;SDS011;40108;53.152;5.844;2023-04-15T13:33:09;12.13;;;1.65;;
54201;SDS011;40108;53.152;5.844;2023-04-15T13:35:36;8.90;;;1.20;;
54201;SDS011;40108;53.152;5.844;2023-04-15T13:38:01;11.38;;;1.50;;
54201;SDS011;40108;53.152;5.844;2023-04-15T13:40:27;6.53;;;1.20;;
54201;SDS011;40108;53.152;5.844;2023-04-15T13:42:53;13.50;;;1.60;;
54201;SDS011;40108;53.152;5.844;2023-04-15T13:45:19;12.10;;;1.40;;
54201;SDS011;40108;53.152;5.844;2023-04-15T13:47:44;12.13;;;1.35;;
54201;SDS011;40108;53.152;5.844;2023-04-15T13:50:10;10.50;;;1.10;;
54201;SDS011;40108;53.152;5.844;2023-04-15T13:52:36;8.07;;;1.10;;
54201;SDS011;40108;53.152;5.844;2023-04-15T13:55:02;6.32;;;1.00;;
54201;SDS011;40108;53.152;5.844;2023-04-15T13:57:28;5.70;;;1.15;;
54201;SDS011;40108;53.152;5.844;2023-04-15T13:59:55;8.25;;;1.50;;
54201;SDS011;40108;53.152;5.844;2023-04-15T14:02:21;7.43;;;1.27;;
54201;SDS011;40108;53.152;5.844;2023-04-15T14:04:47;7.20;;;1.17;;
54201;SDS011;40108;53.152;5.844;2023-04-15T14:07:13;14.55;;;1.83;;
54201;SDS011;40108;53.152;5.844;2023-04-15T14:09:38;10.68;;;1.80;;
54201;SDS011;40108;53.152;5.844;2023-04-15T14:12:04;20.15;;;1.92;;
54201;SDS011;40108;53.152;5.844;2023-04-15T14:14:30;14.25;;;1.88;;
54201;SDS011;40108;53.152;5.844;2023-04-15T14:16:56;14.18;;;1.60;;
54201;SDS011;40108;53.152;5.844;2023-04-15T14:19:23;11.10;;;1.52;;
54201;SDS011;40108;53.152;5.844;2023-04-15T14:21:48;7.20;;;1.25;;
54201;SDS011;40108;53.152;5.844;2023-04-15T14:24:15;8.13;;;1.40;;
54201;SDS011;40108;53.152;5.844;2023-04-15T14:26:41;11.43;;;1.83;;
54201;SDS011;40108;53.152;5.844;2023-04-15T14:29:08;8.07;;;1.70;;
54201;SDS011;40108;53.152;5.844;2023-04-15T14:31:34;13.25;;;1.60;;
54201;SDS011;40108;53.152;5.844;2023-04-15T14:34:00;4.95;;;0.90;;
54201;SDS011;40108;53.152;5.844;2023-04-15T14:36:26;8.93;;;1.42;;
54201;SDS011;40108;53.152;5.844;2023-04-15T14:38:52;5.38;;;1.38;;
54201;SDS011;40108;53.152;5.844;2023-04-15T14:41:18;7.03;;;1.90;;
54201;SDS011;40108;53.152;5.844;2023-04-15T14:43:43;9.43;;;1.17;;
54201;SDS011;40108;53.152;5.844;2023-04-15T14:46:09;10.88;;;1.42;;
54201;SDS011;40108;53.152;5.844;2023-04-15T14:48:35;8.50;;;1.38;;
54201;SDS011;40108;53.152;5.844;2023-04-15T14:51:01;6.63;;;1.80;;
54201;SDS011;40108;53.152;5.844;2023-04-15T14:53:27;15.70;;;2.13;;
54201;SDS011;40108;53.152;5.844;2023-04-15T14:55:52;8.98;;;1.30;;
54201;SDS011;40108;53.152;5.844;2023-04-15T14:58:18;11.40;;;1.35;;